Brilliance Of The Seas — C6SJ5 — position and weather

sailwx.info

Track history (hours):
 
Tides and Currents Weather Stations Pressure Air Temp Water Temp Dewpoint Dewpoint Depression Visibility Wind Speed Wind Dir Waves Ship Positions

Brilliance Of The Seas

Operator: Royal Caribbean Cruises Ltd

Last reported at 2018-Jun-24 03:00 UTC. Time now 2018-Jun-24 18:53 UTC.
Position N 57°48' W 002°24'.

Type: Ship. MMSI: 311361000.

Wind from 260 at 20 knots

Barometer 1024.0 mb
Air temperature 12.0 ° C
Visibility: greater than 10.8 NM
Dewpoint 7.9 ° C
Water temperature 11.0 ° C

Date/timePositionNaut miles runAvg speedWind from/ knotsBaromVisibWave heightAir tempDewpointWater temp
2018-Jun-24 03:00N 57°48' W 002°24'2020.1 260 / 201024.010.8 12.0 7.911.0
2018-Jun-24 02:00N 57°42' W 001°48'8 9.7 270 / 181026.010.8 12.0 7.911.0
2018-Jun-24 01:12N 57°38' W 001°36'316.3
2018-Jun-24 01:00N 57°35' W 001°33'1916.3
2018-Jun-23 23:50N 57°16' W 001°32'4816.7
2018-Jun-23 21:00N 56°30' W 001°54'2916.3 350 / 111024.010.8 14.012.213.0
2018-Jun-23 19:11N 56°10' W 002°32'316.6
2018-Jun-23 19:00N 56°08' W 002°37'816.9
2018-Jun-23 18:30N 56°05' W 002°51'816.2
2018-Jun-23 18:00N 56°03' W 003°05'714.4
2018-Jun-23 17:30N 56°01' W 003°18'1 0.1
2018-Jun-23 05:26N 56°01' W 003°19'612.5
2018-Jun-23 04:58N 56°03' W 003°09'612.8
2018-Jun-23 04:30N 56°04' W 002°59'510.8
2018-Jun-23 04:01N 56°06' W 002°50'611.8
2018-Jun-23 03:30N 56°07' W 002°39'611.4
2018-Jun-23 03:00N 56°06' W 002°29'7557.2
2018-Jun-23 03:00N 56°00' W 002°24'510.2 240 / 261028.010.8 11.0 6.812.0
2018-Jun-23 02:30N 56°04' W 002°19'611.6
2018-Jun-23 02:00N 56°02' W 002°10'611.3
2018-Jun-23 01:30N 55°59' W 002°01'510.7
2018-Jun-23 01:00N 55°56' W 001°54'1187315.3
2018-Jun-23 01:00N 55°48' E 001°36'113232.6 270 / 231028.010.8 12.0 7.911.0
2018-Jun-23 00:30N 55°53' W 001°46'510.7
2018-Jun-23 00:00N 55°49' W 001°38'510.6
2018-Jun-22 23:30N 55°46' W 001°31'510.5
2018-Jun-22 23:00N 55°43' W 001°24'510.7
2018-Jun-22 22:30N 55°39' W 001°16'611.0
2018-Jun-22 21:58N 55°36' W 001°08'511.1
2018-Jun-22 21:30N 55°33' W 001°01'611.2
2018-Jun-22 21:00N 55°29' W 000°53'611.3
2018-Jun-22 20:30N 55°26' W 000°45'611.6
2018-Jun-22 20:00N 55°21' W 000°38'611.7
2018-Jun-22 19:30N 55°18' W 000°31'611.8
2018-Jun-22 19:00N 55°14' W 000°23'1818.1
2018-Jun-22 18:00N 55°06' E 000°06'20 9.2 240 / 101028.010.8 13.011.113.0
2018-Jun-22 15:52N 54°50' E 000°25'13410.4
2018-Jun-22 03:00N 53°18' E 003°12'16 8.1 300 / 341024.010.8 13.0 9.114.0
2018-Jun-22 01:00N 53°06' E 003°30'35 8.8 300 / 371024.210.8 12.910.214.0
2018-Jun-21 21:00N 52°36' E 004°00'411.7 320 / 301024.0 5.4 13.011.114.0
2018-Jun-21 20:40N 52°37' E 004°06'3 9.5
2018-Jun-21 20:23N 52°34' E 004°07'4 8.8
2018-Jun-21 19:59N 52°32' E 004°11'4 8.9
2018-Jun-21 19:30N 52°30' E 004°18'5 9.7
2018-Jun-21 19:00N 52°29' E 004°26'3 5.6
2018-Jun-21 18:30N 52°28' E 004°30'4 7.7
2018-Jun-21 18:00N 52°28' E 004°36'0 0.5
2018-Jun-21 17:30N 52°28' E 004°37'2 4.5
2018-Jun-21 17:00N 52°27' E 004°40'3 6.2
2018-Jun-21 16:30N 52°26' E 004°45'3 6.4
2018-Jun-21 16:00N 52°25' E 004°50'3 6.0
2018-Jun-21 15:31N 52°23' E 004°54'1 2.0
2018-Jun-21 15:00N 52°23' E 004°55'0 0.0
2018-Jun-21 14:30N 52°23' E 004°55'0 0.0
2018-Jun-21 13:57N 52°23' E 004°55'0 0.0
2018-Jun-21 13:30N 52°23' E 004°55'0 0.0
2018-Jun-21 13:00N 52°23' E 004°55'0 0.0
2018-Jun-21 12:30N 52°23' E 004°55'0 0.0
2018-Jun-21 12:00N 52°23' E 004°55'0 0.0
2018-Jun-21 11:30N 52°23' E 004°55'0 0.0
2018-Jun-21 10:57N 52°23' E 004°55'0 0.0
2018-Jun-21 10:30N 52°23' E 004°55'0 0.0
2018-Jun-21 09:54N 52°23' E 004°55'0 0.0
2018-Jun-21 09:30N 52°23' E 004°55'0 0.0
2018-Jun-21 09:00N 52°23' E 004°55'0 0.0
2018-Jun-21 08:30N 52°23' E 004°55'0 0.0
2018-Jun-21 08:00N 52°23' E 004°55'0 0.0
2018-Jun-21 07:30N 52°23' E 004°55'0 0.0
2018-Jun-21 07:00N 52°23' E 004°55'0 0.0
2018-Jun-21 06:30N 52°23' E 004°55'0 0.0
2018-Jun-21 06:00N 52°23' E 004°55'0 0.0
2018-Jun-21 05:30N 52°23' E 004°55'0 0.0
2018-Jun-21 05:00N 52°23' E 004°55'0 0.0
2018-Jun-21 04:30N 52°23' E 004°55'0 0.0
2018-Jun-21 04:00N 52°23' E 004°55'0 0.0
2018-Jun-21 03:31N 52°23' E 004°55'0 0.7
2018-Jun-21 03:00N 52°23' E 004°55'3 5.2
2018-Jun-21 02:31N 52°25' E 004°52'3 6.8
2018-Jun-21 02:00N 52°26' E 004°47'3 6.8
2018-Jun-21 01:30N 52°27' E 004°42'3 6.1
2018-Jun-21 01:00N 52°28' E 004°37'0 0.5
2018-Jun-21 00:30N 52°28' E 004°37'2 3.4
2018-Jun-21 00:00N 52°28' E 004°34'5 9.9
2018-Jun-20 23:30N 52°29' E 004°26'713.4
2018-Jun-20 23:00N 52°29' E 004°15'815.2
2018-Jun-20 22:30N 52°34' E 004°06'2013.4
2018-Jun-20 21:00N 52°54' E 004°00'2722.4 300 / 251015.010.8 15.013.215.0
2018-Jun-20 19:48N 53°15' E 004°27'619.4
2018-Jun-20 19:28N 53°21' E 004°31'918.2
2018-Jun-20 19:00N 53°30' E 004°30'4318.1 250 / 201015.0 5.4 16.012.415.0
2018-Jun-20 18:59N 53°30' E 004°36'1212.3
2018-Jun-20 18:00N 53°42' E 004°42'4020.0 230 / 231015.0 5.4 16.014.315.0
2018-Jun-20 16:00N 54°18' E 005°12'3333.1 210 / 301014.0 2.2 16.014.314.0
2018-Jun-20 15:00N 54°48' E 005°36'11416.2 210 / 291015.0 1.1 15.815.314.9
2018-Jun-20 08:00N 56°24' E 007°24'2626.0 210 / 261013.5 1.1 15.314.814.9
2018-Jun-20 07:00N 56°48' E 007°42'1615.5 130 / 261013.3 0.5 12.011.414.9
2018-Jun-20 06:00N 57°00' E 008°00'7418.6 140 / 111015.5 1.1 11.310.514.9
2018-Jun-20 02:00N 57°42' E 009°54'4517.2 270 / 181017.010.8 12.0 7.912.0
2018-Jun-19 23:24N 57°37' E 011°17'818.8
2018-Jun-19 23:00N 57°31' E 011°26'5719.0
2018-Jun-19 20:00N 56°36' E 011°54'3718.7 040 / 351017.010.8 15.013.215.0
2018-Jun-19 17:59N 56°06' E 012°34'715.1
2018-Jun-19 17:30N 55°60' E 012°41'816.5
2018-Jun-19 17:00N 55°52' E 012°45'714.9
2018-Jun-19 16:30N 55°45' E 012°41'4 7.4
2018-Jun-19 16:01N 55°42' E 012°36'0 0.0
2018-Jun-19 15:31N 55°42' E 012°36'0 0.0
2018-Jun-19 15:01N 55°42' E 012°36'0 0.0
2018-Jun-19 14:28N 55°42' E 012°36'0 0.0
2018-Jun-19 13:58N 55°42' E 012°36'0 0.0
2018-Jun-19 13:28N 55°42' E 012°36'0 0.0
2018-Jun-19 12:58N 55°42' E 012°36'0 0.0
2018-Jun-19 12:28N 55°42' E 012°36'0 0.0
2018-Jun-19 11:58N 55°42' E 012°36'0 0.0
2018-Jun-19 11:28N 55°42' E 012°36'0 0.0
2018-Jun-19 10:52N 55°42' E 012°36'0 0.0
2018-Jun-19 10:28N 55°42' E 012°36'0 0.0
2018-Jun-19 09:58N 55°42' E 012°36'0 0.0
2018-Jun-19 09:28N 55°42' E 012°36'0 0.0
2018-Jun-19 09:01N 55°42' E 012°36'0 0.0
2018-Jun-19 08:31N 55°42' E 012°36'0 0.0
2018-Jun-19 07:58N 55°42' E 012°36'0 0.1
2018-Jun-19 07:30N 55°42' E 012°36'2 4.0
2018-Jun-19 07:00N 55°43' E 012°39'612.0
2018-Jun-19 06:30N 55°49' E 012°43'714.3
2018-Jun-19 06:00N 55°56' E 012°39'714.9
2018-Jun-19 05:31N 56°03' E 012°39'8310.9
2018-Jun-18 21:55N 55°01' E 011°02'716.7
2018-Jun-18 21:30N 54°55' E 010°56'816.6
2018-Jun-18 21:00N 54°47' E 010°53'815.1
2018-Jun-18 20:30N 54°41' E 010°59'917.1
2018-Jun-18 20:00N 54°36' E 011°12'917.4
2018-Jun-18 19:30N 54°33' E 011°25'917.5
2018-Jun-18 19:00N 54°29' E 011°39'816.4
2018-Jun-18 18:30N 54°26' E 011°52'5415.3
2018-Jun-18 15:00N 54°54' E 013°12'2828.2 230 / 141017.627.0 18.517.716.8
2018-Jun-18 14:00N 55°00' E 014°00'814.0 210 / 171017.010.8 17.316.516.8
2018-Jun-18 13:26N 55°07' E 014°08'819.6
2018-Jun-18 13:00N 55°14' E 014°16'1019.4
2018-Jun-18 12:29N 55°22' E 014°26'3 6.8
2018-Jun-18 12:00N 55°24' E 014°30'970.7 210 / 191018.010.8 17.016.216.8
2018-Jun-18 11:52N 55°29' E 014°42'5418.6
2018-Jun-18 09:00N 55°54' E 016°06'3919.3 240 / 191017.510.8 15.915.016.8
2018-Jun-18 07:00N 56°18' E 017°00'1919.2 250 / 191016.410.8 16.115.216.8
2018-Jun-18 06:00N 56°36' E 017°12'3215.8 260 / 171017.010.8 15.814.916.8
2018-Jun-18 04:00N 57°06' E 017°30'5225.9 240 / 151014.010.8 15.714.517.0
2018-Jun-18 02:00N 57°54' E 018°06'10621.2 270 / 171015.010.8 16.012.414.0
2018-Jun-17 21:00N 59°24' E 019°54'2216.1 150 / 261012.0 16.012.414.0
2018-Jun-17 19:38N 59°45' E 019°43'617.7
2018-Jun-17 19:17N 59°47' E 019°31'516.9
2018-Jun-17 19:01N 59°46' E 019°22'815.5
2018-Jun-17 18:29N 59°43' E 019°07'715.2
2018-Jun-17 18:00N 59°39' E 018°55'610.9
2018-Jun-17 17:28N 59°36' E 018°46'511.3
2018-Jun-17 16:59N 59°33' E 018°36'5 9.3
2018-Jun-17 16:24N 59°30' E 018°28'411.0
2018-Jun-17 16:00N 59°26' E 018°23'5 9.1
2018-Jun-17 15:29N 59°22' E 018°27'4 8.4
2018-Jun-17 15:00N 59°22' E 018°19'611.4
2018-Jun-17 14:30N 59°19' E 018°09'2 3.2
2018-Jun-17 14:00N 59°19' E 018°06'0 0.0
2018-Jun-17 13:30N 59°19' E 018°06'0 0.0
2018-Jun-17 13:00N 59°19' E 018°06'0 0.0
2018-Jun-17 12:30N 59°19' E 018°06'0 0.0
2018-Jun-17 12:00N 59°19' E 018°06'0 0.0
2018-Jun-17 11:30N 59°19' E 018°06'0 0.0
2018-Jun-17 11:00N 59°19' E 018°06'0 0.0
2018-Jun-17 10:30N 59°19' E 018°06'0 0.0
2018-Jun-17 10:00N 59°19' E 018°06'0 0.0
2018-Jun-17 09:30N 59°19' E 018°06'0 0.0
2018-Jun-17 09:00N 59°19' E 018°06'0 0.0
2018-Jun-17 08:30N 59°19' E 018°06'0 0.0
2018-Jun-17 08:00N 59°19' E 018°06'0 0.0
2018-Jun-17 07:30N 59°19' E 018°06'0 0.0
2018-Jun-17 07:00N 59°19' E 018°06'0 0.0
2018-Jun-17 06:30N 59°19' E 018°06'0 0.0
2018-Jun-17 06:00N 59°19' E 018°06'0 0.0
2018-Jun-17 05:30N 59°19' E 018°06'0 0.0
2018-Jun-17 05:00N 59°19' E 018°06'2 3.4
2018-Jun-17 04:30N 59°19' E 018°09'611.6
2018-Jun-17 04:00N 59°23' E 018°18'4 8.6
2018-Jun-17 03:30N 59°22' E 018°27'4 9.0
2018-Jun-17 03:00N 59°27' E 018°25'510.8
2018-Jun-17 02:30N 59°31' E 018°31'5 9.8
2018-Jun-17 02:01N 59°34' E 018°39'4247.6
2018-Jun-17 02:00N 59°30' E 018°36'919.6 180 / 61018.010.8 14.010.216.0
2018-Jun-17 01:31N 59°37' E 018°49'5 9.5
2018-Jun-17 01:00N 59°40' E 018°56'815.2
2018-Jun-17 00:30N 59°44' E 019°09'815.7
2018-Jun-17 00:00N 59°47' E 019°24'713.3
2018-Jun-16 23:30N 59°48' E 019°37'714.2
2018-Jun-16 23:00N 59°45' E 019°50'815.6
2018-Jun-16 22:28N 59°39' E 020°02'815.0
2018-Jun-16 21:58N 59°36' E 020°15'715.7
2018-Jun-16 21:30N 59°35' E 020°29'815.5
2018-Jun-16 21:00N 59°32' E 020°44'1115.9
2018-Jun-16 20:20N 59°28' E 021°02'516.5
2018-Jun-16 20:00N 59°27' E 021°13'816.4
2018-Jun-16 19:30N 59°26' E 021°29'816.5
2018-Jun-16 19:00N 59°26' E 021°45'816.9
2018-Jun-16 18:30N 59°26' E 022°02'1216.8
2018-Jun-16 17:47N 59°28' E 022°25'517.0
2018-Jun-16 17:30N 59°30' E 022°34'917.2
2018-Jun-16 17:00N 59°32' E 022°50'817.0
2018-Jun-16 16:30N 59°35' E 023°06'917.1
2018-Jun-16 16:00N 59°37' E 023°22'11669.9
2018-Jun-16 16:00N 59°30' E 023°06'1939.3 290 / 101019.010.8 16.014.315.0
2018-Jun-16 15:30N 59°40' E 023°38'917.1
2018-Jun-16 15:00N 59°43' E 023°54'817.0
2018-Jun-16 14:30N 59°45' E 024°10'917.3
2018-Jun-16 14:00N 59°47' E 024°27'916.2
2018-Jun-16 13:26N 59°54' E 024°41'717.0
2018-Jun-16 13:00N 59°58' E 024°51'612.5
2018-Jun-16 12:31N 60°04' E 024°53'5 8.6
2018-Jun-16 11:59N 60°09' E 024°55'0 0.0
2018-Jun-16 11:29N 60°09' E 024°55'0 0.0
2018-Jun-16 10:59N 60°09' E 024°55'0 0.0
2018-Jun-16 10:29N 60°09' E 024°55'0 0.0
2018-Jun-16 09:59N 60°09' E 024°55'0 0.0
2018-Jun-16 09:29N 60°09' E 024°55'0 0.0
2018-Jun-16 08:59N 60°09' E 024°55'0 0.0
2018-Jun-16 08:26N 60°09' E 024°55'0 0.0
2018-Jun-16 07:59N 60°09' E 024°55'0 0.0
2018-Jun-16 07:29N 60°09' E 024°55'0 0.0
2018-Jun-16 06:59N 60°09' E 024°55'0 0.0
2018-Jun-16 06:29N 60°09' E 024°55'0 0.0
2018-Jun-16 05:59N 60°09' E 024°55'0 0.0
2018-Jun-16 05:29N 60°09' E 024°55'3 6.1
2018-Jun-16 05:00N 60°06' E 024°54'3371.6 1019.010.8 14.813.711.0
2018-Jun-16 04:59N 60°09' E 024°55'0 0.0
2018-Jun-16 04:29N 60°09' E 024°55'3 6.1
2018-Jun-16 04:00N 60°06' E 024°54'3371.6 240 / 21022.510.8 15.413.811.0
2018-Jun-16 03:59N 60°09' E 024°55'0 0.4
2018-Jun-16 03:31N 60°09' E 024°55'3 6.0
2018-Jun-16 03:00N 60°06' E 024°54'713.7
2018-Jun-16 02:31N 59°59' E 024°59'714.5
2018-Jun-16 02:00N 59°58' E 025°13'816.1
2018-Jun-16 01:30N 59°56' E 025°28'816.0
2018-Jun-16 01:00N 59°55' E 025°44'816.3
2018-Jun-16 00:31N 59°57' E 025°60'816.0
2018-Jun-16 00:01N 59°59' E 026°15'5309.1
2018-Jun-16 00:00N 59°54' E 026°12'1224.1 200 / 151022.627.0 15.011.315.0
2018-Jun-15 23:31N 60°01' E 026°31'816.1
2018-Jun-15 23:00N 60°01' E 026°47'816.2
2018-Jun-15 22:29N 59°60' E 027°03'816.0
2018-Jun-15 22:00N 60°04' E 027°17'816.1
2018-Jun-15 21:30N 60°08' E 027°31'816.0
2018-Jun-15 21:01N 60°12' E 027°44'815.8
2018-Jun-15 20:29N 60°10' E 028°01'816.7
2018-Jun-15 20:00N 60°08' E 028°16'815.3
2018-Jun-15 19:30N 60°04' E 028°29'815.7
2018-Jun-15 19:00N 60°03' E 028°44'917.5
2018-Jun-15 18:28N 60°02' E 029°03'816.2
2018-Jun-15 18:00N 60°02' E 029°19'2011.3
2018-Jun-15 16:12N 59°56' E 029°57'2 9.9
2018-Jun-15 16:00N 59°55' E 030°01'5 9.7
2018-Jun-15 15:30N 59°57' E 030°10'0 0.7
2018-Jun-15 14:55N 59°57' E 030°11'0 0.0
2018-Jun-15 14:25N 59°57' E 030°11'0 0.0
2018-Jun-15 13:49N 59°57' E 030°11'0 0.0
2018-Jun-15 13:25N 59°57' E 030°11'0 0.0
2018-Jun-15 12:46N 59°57' E 030°11'0 0.0
2018-Jun-15 12:25N 59°57' E 030°11'0 0.0
2018-Jun-15 11:58N 59°57' E 030°11'0 0.0
2018-Jun-15 11:28N 59°57' E 030°11'0 0.0
2018-Jun-15 10:55N 59°57' E 030°11'0 0.0
2018-Jun-15 10:28N 59°57' E 030°11'0 0.0
2018-Jun-15 09:58N 59°57' E 030°11'0 0.0
2018-Jun-15 09:28N 59°57' E 030°11'0 0.0
2018-Jun-15 08:58N 59°57' E 030°11'0 0.0
2018-Jun-15 08:28N 59°57' E 030°11'0 0.0
2018-Jun-15 07:58N 59°57' E 030°11'0 0.0
2018-Jun-15 07:28N 59°57' E 030°11'0 0.0
2018-Jun-15 06:58N 59°57' E 030°11'0 0.0
2018-Jun-15 06:25N 59°57' E 030°11'0 0.0
2018-Jun-15 05:58N 59°57' E 030°11'0 0.0
2018-Jun-15 05:22N 59°57' E 030°11'0 0.0
2018-Jun-15 04:52N 59°57' E 030°11'0 0.0
2018-Jun-15 04:28N 59°57' E 030°11'0 0.0
2018-Jun-15 03:52N 59°57' E 030°11'0 0.0
2018-Jun-15 03:28N 59°57' E 030°11'0 0.0
2018-Jun-15 02:55N 59°57' E 030°11'0 0.0
2018-Jun-15 02:22N 59°57' E 030°11'0 0.0
2018-Jun-15 01:58N 59°57' E 030°11'0 0.0
2018-Jun-15 01:22N 59°57' E 030°11'0 0.0
2018-Jun-15 00:58N 59°57' E 030°11'0 0.0
2018-Jun-15 00:16N 59°57' E 030°11'0 0.0
2018-Jun-14 23:58N 59°57' E 030°11'0 0.0
2018-Jun-14 23:25N 59°57' E 030°11'0 0.0
2018-Jun-14 22:25N 59°57' E 030°11'0 0.0
2018-Jun-14 21:58N 59°57' E 030°11'0 0.0
2018-Jun-14 21:25N 59°57' E 030°11'0 0.0
2018-Jun-14 20:38N 59°57' E 030°11'0 0.0
2018-Jun-14 20:29N 59°57' E 030°11'0 0.0
2018-Jun-14 19:54N 59°57' E 030°11'0 0.0
2018-Jun-14 19:29N 59°57' E 030°11'0 0.0
2018-Jun-14 18:56N 59°57' E 030°11'0 0.0
2018-Jun-14 18:28N 59°57' E 030°11'0 0.0
2018-Jun-14 17:55N 59°57' E 030°11'0 0.0
2018-Jun-14 17:16N 59°57' E 030°11'0 0.0
2018-Jun-14 16:50N 59°57' E 030°11'0 0.0
2018-Jun-14 15:40N 59°57' E 030°11'0 0.0
2018-Jun-14 15:19N 59°57' E 030°11'0 0.0
2018-Jun-14 14:55N 59°57' E 030°11'0 0.0
2018-Jun-14 14:22N 59°57' E 030°11'0 0.0
2018-Jun-14 13:58N 59°57' E 030°11'0 0.0
2018-Jun-14 13:19N 59°57' E 030°11'0 0.0
2018-Jun-14 12:43N 59°57' E 030°11'0 0.0
2018-Jun-14 12:19N 59°57' E 030°11'0 0.0
2018-Jun-14 10:41N 59°57' E 030°11'0 0.0
2018-Jun-14 10:28N 59°57' E 030°11'0 0.0
2018-Jun-14 09:58N 59°57' E 030°11'0 0.0
2018-Jun-14 09:25N 59°57' E 030°11'0 0.0
2018-Jun-14 08:10N 59°57' E 030°11'0 0.0
2018-Jun-14 07:55N 59°57' E 030°11'0 0.0
2018-Jun-14 07:28N 59°57' E 030°11'0 0.0
2018-Jun-14 06:55N 59°57' E 030°11'0 0.0
2018-Jun-14 06:20N 59°57' E 030°11'0 0.0
2018-Jun-14 05:52N 59°57' E 030°11'0 0.0
2018-Jun-14 05:23N 59°57' E 030°11'0 0.0
2018-Jun-14 04:40N 59°57' E 030°11'0 0.0
2018-Jun-14 04:28N 59°57' E 030°11'0 0.0
2018-Jun-14 04:00N 59°57' E 030°11'0 0.1
2018-Jun-14 03:27N 59°57' E 030°11'2 3.6
2018-Jun-14 03:01N 59°57' E 030°08'  
Track history (hours):
 
Tides and Currents Weather Stations Pressure Air Temp Water Temp Dewpoint Dewpoint Depression Visibility Wind Speed Wind Dir Waves Ship Positions

Brilliance Of The Seas

Operator: Royal Caribbean Cruises Ltd

Last reported at 2018-Jun-24 03:00 UTC. Time now 2018-Jun-24 18:53 UTC.
Position N 57°48' W 002°24'.

Type: Ship. MMSI: 311361000.

Wind from 260 at 20 knots

Barometer 1024.0 mb
Air temperature 12.0 ° C
Visibility: greater than 10.8 NM
Dewpoint 7.9 ° C
Water temperature 11.0 ° C

Date/timePositionNaut miles runAvg speedWind from/ knotsBaromVisibWave heightAir tempDewpointWater temp
2018-Jun-24 03:00N 57°48' W 002°24'2020.1 260 / 201024.010.8 12.0 7.911.0
2018-Jun-24 02:00N 57°42' W 001°48'8 9.7 270 / 181026.010.8 12.0 7.911.0
2018-Jun-24 01:12N 57°38' W 001°36'316.3
2018-Jun-24 01:00N 57°35' W 001°33'1916.3
2018-Jun-23 23:50N 57°16' W 001°32'4816.7
2018-Jun-23 21:00N 56°30' W 001°54'2916.3 350 / 111024.010.8 14.012.213.0
2018-Jun-23 19:11N 56°10' W 002°32'316.6
2018-Jun-23 19:00N 56°08' W 002°37'816.9
2018-Jun-23 18:30N 56°05' W 002°51'816.2
2018-Jun-23 18:00N 56°03' W 003°05'714.4
2018-Jun-23 17:30N 56°01' W 003°18'1 0.1
2018-Jun-23 05:26N 56°01' W 003°19'612.5
2018-Jun-23 04:58N 56°03' W 003°09'612.8
2018-Jun-23 04:30N 56°04' W 002°59'510.8
2018-Jun-23 04:01N 56°06' W 002°50'611.8
2018-Jun-23 03:30N 56°07' W 002°39'611.4
2018-Jun-23 03:00N 56°06' W 002°29'7557.2
2018-Jun-23 03:00N 56°00' W 002°24'510.2 240 / 261028.010.8 11.0 6.812.0
2018-Jun-23 02:30N 56°04' W 002°19'611.6
2018-Jun-23 02:00N 56°02' W 002°10'611.3
2018-Jun-23 01:30N 55°59' W 002°01'510.7
2018-Jun-23 01:00N 55°56' W 001°54'1187315.3
2018-Jun-23 01:00N 55°48' E 001°36'113232.6 270 / 231028.010.8 12.0 7.911.0
2018-Jun-23 00:30N 55°53' W 001°46'510.7
2018-Jun-23 00:00N 55°49' W 001°38'510.6
2018-Jun-22 23:30N 55°46' W 001°31'510.5
2018-Jun-22 23:00N 55°43' W 001°24'510.7
2018-Jun-22 22:30N 55°39' W 001°16'611.0
2018-Jun-22 21:58N 55°36' W 001°08'511.1
2018-Jun-22 21:30N 55°33' W 001°01'611.2
2018-Jun-22 21:00N 55°29' W 000°53'611.3
2018-Jun-22 20:30N 55°26' W 000°45'611.6
2018-Jun-22 20:00N 55°21' W 000°38'611.7
2018-Jun-22 19:30N 55°18' W 000°31'611.8
2018-Jun-22 19:00N 55°14' W 000°23'1818.1
2018-Jun-22 18:00N 55°06' E 000°06'20 9.2 240 / 101028.010.8 13.011.113.0
2018-Jun-22 15:52N 54°50' E 000°25'13410.4
2018-Jun-22 03:00N 53°18' E 003°12'16 8.1 300 / 341024.010.8 13.0 9.114.0
2018-Jun-22 01:00N 53°06' E 003°30'35 8.8 300 / 371024.210.8 12.910.214.0
2018-Jun-21 21:00N 52°36' E 004°00'411.7 320 / 301024.0 5.4 13.011.114.0
2018-Jun-21 20:40N 52°37' E 004°06'3 9.5
2018-Jun-21 20:23N 52°34' E 004°07'4 8.8
2018-Jun-21 19:59N 52°32' E 004°11'4 8.9
2018-Jun-21 19:30N 52°30' E 004°18'5 9.7
2018-Jun-21 19:00N 52°29' E 004°26'3 5.6
2018-Jun-21 18:30N 52°28' E 004°30'4 7.7
2018-Jun-21 18:00N 52°28' E 004°36'0 0.5
2018-Jun-21 17:30N 52°28' E 004°37'2 4.5
2018-Jun-21 17:00N 52°27' E 004°40'3 6.2
2018-Jun-21 16:30N 52°26' E 004°45'3 6.4
2018-Jun-21 16:00N 52°25' E 004°50'3 6.0
2018-Jun-21 15:31N 52°23' E 004°54'1 2.0
2018-Jun-21 15:00N 52°23' E 004°55'0 0.0
2018-Jun-21 14:30N 52°23' E 004°55'0 0.0
2018-Jun-21 13:57N 52°23' E 004°55'0 0.0
2018-Jun-21 13:30N 52°23' E 004°55'0 0.0
2018-Jun-21 13:00N 52°23' E 004°55'0 0.0
2018-Jun-21 12:30N 52°23' E 004°55'0 0.0
2018-Jun-21 12:00N 52°23' E 004°55'0 0.0
2018-Jun-21 11:30N 52°23' E 004°55'0 0.0
2018-Jun-21 10:57N 52°23' E 004°55'0 0.0
2018-Jun-21 10:30N 52°23' E 004°55'0 0.0
2018-Jun-21 09:54N 52°23' E 004°55'0 0.0
2018-Jun-21 09:30N 52°23' E 004°55'0 0.0
2018-Jun-21 09:00N 52°23' E 004°55'0 0.0
2018-Jun-21 08:30N 52°23' E 004°55'0 0.0
2018-Jun-21 08:00N 52°23' E 004°55'0 0.0
2018-Jun-21 07:30N 52°23' E 004°55'0 0.0
2018-Jun-21 07:00N 52°23' E 004°55'0 0.0
2018-Jun-21 06:30N 52°23' E 004°55'0 0.0
2018-Jun-21 06:00N 52°23' E 004°55'0 0.0
2018-Jun-21 05:30N 52°23' E 004°55'0 0.0
2018-Jun-21 05:00N 52°23' E 004°55'0 0.0
2018-Jun-21 04:30N 52°23' E 004°55'0 0.0
2018-Jun-21 04:00N 52°23' E 004°55'0 0.0
2018-Jun-21 03:31N 52°23' E 004°55'0 0.7
2018-Jun-21 03:00N 52°23' E 004°55'3 5.2
2018-Jun-21 02:31N 52°25' E 004°52'3 6.8
2018-Jun-21 02:00N 52°26' E 004°47'3 6.8
2018-Jun-21 01:30N 52°27' E 004°42'3 6.1
2018-Jun-21 01:00N 52°28' E 004°37'0 0.5
2018-Jun-21 00:30N 52°28' E 004°37'2 3.4
2018-Jun-21 00:00N 52°28' E 004°34'5 9.9
2018-Jun-20 23:30N 52°29' E 004°26'713.4
2018-Jun-20 23:00N 52°29' E 004°15'815.2
2018-Jun-20 22:30N 52°34' E 004°06'2013.4
2018-Jun-20 21:00N 52°54' E 004°00'2722.4 300 / 251015.010.8 15.013.215.0
2018-Jun-20 19:48N 53°15' E 004°27'619.4
2018-Jun-20 19:28N 53°21' E 004°31'918.2
2018-Jun-20 19:00N 53°30' E 004°30'4318.1 250 / 201015.0 5.4 16.012.415.0
2018-Jun-20 18:59N 53°30' E 004°36'1212.3
2018-Jun-20 18:00N 53°42' E 004°42'4020.0 230 / 231015.0 5.4 16.014.315.0
2018-Jun-20 16:00N 54°18' E 005°12'3333.1 210 / 301014.0 2.2 16.014.314.0
2018-Jun-20 15:00N 54°48' E 005°36'11416.2 210 / 291015.0 1.1 15.815.314.9
2018-Jun-20 08:00N 56°24' E 007°24'2626.0 210 / 261013.5 1.1 15.314.814.9
2018-Jun-20 07:00N 56°48' E 007°42'1615.5 130 / 261013.3 0.5 12.011.414.9
2018-Jun-20 06:00N 57°00' E 008°00'7418.6 140 / 111015.5 1.1 11.310.514.9
2018-Jun-20 02:00N 57°42' E 009°54'4517.2 270 / 181017.010.8 12.0 7.912.0
2018-Jun-19 23:24N 57°37' E 011°17'818.8
2018-Jun-19 23:00N 57°31' E 011°26'5719.0
2018-Jun-19 20:00N 56°36' E 011°54'3718.7 040 / 351017.010.8 15.013.215.0
2018-Jun-19 17:59N 56°06' E 012°34'715.1
2018-Jun-19 17:30N 55°60' E 012°41'816.5
2018-Jun-19 17:00N 55°52' E 012°45'714.9
2018-Jun-19 16:30N 55°45' E 012°41'4 7.4
2018-Jun-19 16:01N 55°42' E 012°36'0 0.0
2018-Jun-19 15:31N 55°42' E 012°36'0 0.0
2018-Jun-19 15:01N 55°42' E 012°36'0 0.0
2018-Jun-19 14:28N 55°42' E 012°36'0 0.0
2018-Jun-19 13:58N 55°42' E 012°36'0 0.0
2018-Jun-19 13:28N 55°42' E 012°36'0 0.0
2018-Jun-19 12:58N 55°42' E 012°36'0 0.0
2018-Jun-19 12:28N 55°42' E 012°36'0 0.0
2018-Jun-19 11:58N 55°42' E 012°36'0 0.0
2018-Jun-19 11:28N 55°42' E 012°36'0 0.0
2018-Jun-19 10:52N 55°42' E 012°36'0 0.0
2018-Jun-19 10:28N 55°42' E 012°36'0 0.0
2018-Jun-19 09:58N 55°42' E 012°36'0 0.0
2018-Jun-19 09:28N 55°42' E 012°36'0 0.0
2018-Jun-19 09:01N 55°42' E 012°36'0 0.0
2018-Jun-19 08:31N 55°42' E 012°36'0 0.0
2018-Jun-19 07:58N 55°42' E 012°36'0 0.1
2018-Jun-19 07:30N 55°42' E 012°36'2 4.0
2018-Jun-19 07:00N 55°43' E 012°39'612.0
2018-Jun-19 06:30N 55°49' E 012°43'714.3
2018-Jun-19 06:00N 55°56' E 012°39'714.9
2018-Jun-19 05:31N 56°03' E 012°39'8310.9
2018-Jun-18 21:55N 55°01' E 011°02'716.7
2018-Jun-18 21:30N 54°55' E 010°56'816.6
2018-Jun-18 21:00N 54°47' E 010°53'815.1
2018-Jun-18 20:30N 54°41' E 010°59'917.1
2018-Jun-18 20:00N 54°36' E 011°12'917.4
2018-Jun-18 19:30N 54°33' E 011°25'917.5
2018-Jun-18 19:00N 54°29' E 011°39'816.4
2018-Jun-18 18:30N 54°26' E 011°52'5415.3
2018-Jun-18 15:00N 54°54' E 013°12'2828.2 230 / 141017.627.0 18.517.716.8
2018-Jun-18 14:00N 55°00' E 014°00'814.0 210 / 171017.010.8 17.316.516.8
2018-Jun-18 13:26N 55°07' E 014°08'819.6
2018-Jun-18 13:00N 55°14' E 014°16'1019.4
2018-Jun-18 12:29N 55°22' E 014°26'3 6.8
2018-Jun-18 12:00N 55°24' E 014°30'970.7 210 / 191018.010.8 17.016.216.8
2018-Jun-18 11:52N 55°29' E 014°42'5418.6
2018-Jun-18 09:00N 55°54' E 016°06'3919.3 240 / 191017.510.8 15.915.016.8
2018-Jun-18 07:00N 56°18' E 017°00'1919.2 250 / 191016.410.8 16.115.216.8
2018-Jun-18 06:00N 56°36' E 017°12'3215.8 260 / 171017.010.8 15.814.916.8
2018-Jun-18 04:00N 57°06' E 017°30'5225.9 240 / 151014.010.8 15.714.517.0
2018-Jun-18 02:00N 57°54' E 018°06'10621.2 270 / 171015.010.8 16.012.414.0
2018-Jun-17 21:00N 59°24' E 019°54'2216.1 150 / 261012.0 16.012.414.0
2018-Jun-17 19:38N 59°45' E 019°43'617.7
2018-Jun-17 19:17N 59°47' E 019°31'516.9
2018-Jun-17 19:01N 59°46' E 019°22'815.5
2018-Jun-17 18:29N 59°43' E 019°07'715.2
2018-Jun-17 18:00N 59°39' E 018°55'610.9
2018-Jun-17 17:28N 59°36' E 018°46'511.3
2018-Jun-17 16:59N 59°33' E 018°36'5 9.3
2018-Jun-17 16:24N 59°30' E 018°28'411.0
2018-Jun-17 16:00N 59°26' E 018°23'5 9.1
2018-Jun-17 15:29N 59°22' E 018°27'4 8.4
2018-Jun-17 15:00N 59°22' E 018°19'611.4
2018-Jun-17 14:30N 59°19' E 018°09'2 3.2
2018-Jun-17 14:00N 59°19' E 018°06'0 0.0
2018-Jun-17 13:30N 59°19' E 018°06'0 0.0
2018-Jun-17 13:00N 59°19' E 018°06'0 0.0
2018-Jun-17 12:30N 59°19' E 018°06'0 0.0
2018-Jun-17 12:00N 59°19' E 018°06'0 0.0
2018-Jun-17 11:30N 59°19' E 018°06'0 0.0
2018-Jun-17 11:00N 59°19' E 018°06'0 0.0
2018-Jun-17 10:30N 59°19' E 018°06'0 0.0
2018-Jun-17 10:00N 59°19' E 018°06'0 0.0
2018-Jun-17 09:30N 59°19' E 018°06'0 0.0
2018-Jun-17 09:00N 59°19' E 018°06'0 0.0
2018-Jun-17 08:30N 59°19' E 018°06'0 0.0
2018-Jun-17 08:00N 59°19' E 018°06'0 0.0
2018-Jun-17 07:30N 59°19' E 018°06'0 0.0
2018-Jun-17 07:00N 59°19' E 018°06'0 0.0
2018-Jun-17 06:30N 59°19' E 018°06'0 0.0
2018-Jun-17 06:00N 59°19' E 018°06'0 0.0
2018-Jun-17 05:30N 59°19' E 018°06'0 0.0
2018-Jun-17 05:00N 59°19' E 018°06'2 3.4
2018-Jun-17 04:30N 59°19' E 018°09'611.6
2018-Jun-17 04:00N 59°23' E 018°18'4 8.6
2018-Jun-17 03:30N 59°22' E 018°27'4 9.0
2018-Jun-17 03:00N 59°27' E 018°25'510.8
2018-Jun-17 02:30N 59°31' E 018°31'5 9.8
2018-Jun-17 02:01N 59°34' E 018°39'4247.6
2018-Jun-17 02:00N 59°30' E 018°36'919.6 180 / 61018.010.8 14.010.216.0
2018-Jun-17 01:31N 59°37' E 018°49'5 9.5
2018-Jun-17 01:00N 59°40' E 018°56'815.2
2018-Jun-17 00:30N 59°44' E 019°09'815.7
2018-Jun-17 00:00N 59°47' E 019°24'713.3
2018-Jun-16 23:30N 59°48' E 019°37'714.2
2018-Jun-16 23:00N 59°45' E 019°50'815.6
2018-Jun-16 22:28N 59°39' E 020°02'815.0
2018-Jun-16 21:58N 59°36' E 020°15'715.7
2018-Jun-16 21:30N 59°35' E 020°29'815.5
2018-Jun-16 21:00N 59°32' E 020°44'1115.9
2018-Jun-16 20:20N 59°28' E 021°02'516.5
2018-Jun-16 20:00N 59°27' E 021°13'816.4
2018-Jun-16 19:30N 59°26' E 021°29'816.5
2018-Jun-16 19:00N 59°26' E 021°45'816.9
2018-Jun-16 18:30N 59°26' E 022°02'1216.8
2018-Jun-16 17:47N 59°28' E 022°25'517.0
2018-Jun-16 17:30N 59°30' E 022°34'917.2
2018-Jun-16 17:00N 59°32' E 022°50'817.0
2018-Jun-16 16:30N 59°35' E 023°06'917.1
2018-Jun-16 16:00N 59°37' E 023°22'11669.9
2018-Jun-16 16:00N 59°30' E 023°06'1939.3 290 / 101019.010.8 16.014.315.0
2018-Jun-16 15:30N 59°40' E 023°38'917.1
2018-Jun-16 15:00N 59°43' E 023°54'817.0
2018-Jun-16 14:30N 59°45' E 024°10'917.3
2018-Jun-16 14:00N 59°47' E 024°27'916.2
2018-Jun-16 13:26N 59°54' E 024°41'717.0
2018-Jun-16 13:00N 59°58' E 024°51'612.5
2018-Jun-16 12:31N 60°04' E 024°53'5 8.6
2018-Jun-16 11:59N 60°09' E 024°55'0 0.0
2018-Jun-16 11:29N 60°09' E 024°55'0 0.0
2018-Jun-16 10:59N 60°09' E 024°55'0 0.0
2018-Jun-16 10:29N 60°09' E 024°55'0 0.0
2018-Jun-16 09:59N 60°09' E 024°55'0 0.0
2018-Jun-16 09:29N 60°09' E 024°55'0 0.0
2018-Jun-16 08:59N 60°09' E 024°55'0 0.0
2018-Jun-16 08:26N 60°09' E 024°55'0 0.0
2018-Jun-16 07:59N 60°09' E 024°55'0 0.0
2018-Jun-16 07:29N 60°09' E 024°55'0 0.0
2018-Jun-16 06:59N 60°09' E 024°55'0 0.0
2018-Jun-16 06:29N 60°09' E 024°55'0 0.0
2018-Jun-16 05:59N 60°09' E 024°55'0 0.0
2018-Jun-16 05:29N 60°09' E 024°55'3 6.1
2018-Jun-16 05:00N 60°06' E 024°54'3371.6 1019.010.8 14.813.711.0
2018-Jun-16 04:59N 60°09' E 024°55'0 0.0
2018-Jun-16 04:29N 60°09' E 024°55'3 6.1
2018-Jun-16 04:00N 60°06' E 024°54'3371.6 240 / 21022.510.8 15.413.811.0
2018-Jun-16 03:59N 60°09' E 024°55'0 0.4
2018-Jun-16 03:31N 60°09' E 024°55'3 6.0
2018-Jun-16 03:00N 60°06' E 024°54'713.7
2018-Jun-16 02:31N 59°59' E 024°59'714.5
2018-Jun-16 02:00N 59°58' E 025°13'816.1
2018-Jun-16 01:30N 59°56' E 025°28'816.0
2018-Jun-16 01:00N 59°55' E 025°44'816.3
2018-Jun-16 00:31N 59°57' E 025°60'816.0
2018-Jun-16 00:01N 59°59' E 026°15'5309.1
2018-Jun-16 00:00N 59°54' E 026°12'1224.1 200 / 151022.627.0 15.011.315.0
2018-Jun-15 23:31N 60°01' E 026°31'816.1
2018-Jun-15 23:00N 60°01' E 026°47'816.2
2018-Jun-15 22:29N 59°60' E 027°03'816.0
2018-Jun-15 22:00N 60°04' E 027°17'816.1
2018-Jun-15 21:30N 60°08' E 027°31'816.0
2018-Jun-15 21:01N 60°12' E 027°44'815.8
2018-Jun-15 20:29N 60°10' E 028°01'816.7
2018-Jun-15 20:00N 60°08' E 028°16'815.3
2018-Jun-15 19:30N 60°04' E 028°29'815.7
2018-Jun-15 19:00N 60°03' E 028°44'917.5
2018-Jun-15 18:28N 60°02' E 029°03'816.2
2018-Jun-15 18:00N 60°02' E 029°19'2011.3
2018-Jun-15 16:12N 59°56' E 029°57'2 9.9
2018-Jun-15 16:00N 59°55' E 030°01'5 9.7
2018-Jun-15 15:30N 59°57' E 030°10'0 0.7
2018-Jun-15 14:55N 59°57' E 030°11'0 0.0
2018-Jun-15 14:25N 59°57' E 030°11'0 0.0
2018-Jun-15 13:49N 59°57' E 030°11'0 0.0
2018-Jun-15 13:25N 59°57' E 030°11'0 0.0
2018-Jun-15 12:46N 59°57' E 030°11'0 0.0
2018-Jun-15 12:25N 59°57' E 030°11'0 0.0
2018-Jun-15 11:58N 59°57' E 030°11'0 0.0
2018-Jun-15 11:28N 59°57' E 030°11'0 0.0
2018-Jun-15 10:55N 59°57' E 030°11'0 0.0
2018-Jun-15 10:28N 59°57' E 030°11'0 0.0
2018-Jun-15 09:58N 59°57' E 030°11'0 0.0
2018-Jun-15 09:28N 59°57' E 030°11'0 0.0
2018-Jun-15 08:58N 59°57' E 030°11'0 0.0
2018-Jun-15 08:28N 59°57' E 030°11'0 0.0
2018-Jun-15 07:58N 59°57' E 030°11'0 0.0
2018-Jun-15 07:28N 59°57' E 030°11'0 0.0
2018-Jun-15 06:58N 59°57' E 030°11'0 0.0
2018-Jun-15 06:25N 59°57' E 030°11'0 0.0
2018-Jun-15 05:58N 59°57' E 030°11'0 0.0
2018-Jun-15 05:22N 59°57' E 030°11'0 0.0
2018-Jun-15 04:52N 59°57' E 030°11'0 0.0
2018-Jun-15 04:28N 59°57' E 030°11'0 0.0
2018-Jun-15 03:52N 59°57' E 030°11'0 0.0
2018-Jun-15 03:28N 59°57' E 030°11'0 0.0
2018-Jun-15 02:55N 59°57' E 030°11'0 0.0
2018-Jun-15 02:22N 59°57' E 030°11'0 0.0
2018-Jun-15 01:58N 59°57' E 030°11'0 0.0
2018-Jun-15 01:22N 59°57' E 030°11'0 0.0
2018-Jun-15 00:58N 59°57' E 030°11'0 0.0
2018-Jun-15 00:16N 59°57' E 030°11'0 0.0
2018-Jun-14 23:58N 59°57' E 030°11'0 0.0
2018-Jun-14 23:25N 59°57' E 030°11'0 0.0
2018-Jun-14 22:25N 59°57' E 030°11'0 0.0
2018-Jun-14 21:58N 59°57' E 030°11'0 0.0
2018-Jun-14 21:25N 59°57' E 030°11'0 0.0
2018-Jun-14 20:38N 59°57' E 030°11'0 0.0
2018-Jun-14 20:29N 59°57' E 030°11'0 0.0
2018-Jun-14 19:54N 59°57' E 030°11'0 0.0
2018-Jun-14 19:29N 59°57' E 030°11'0 0.0
2018-Jun-14 18:56N 59°57' E 030°11'0 0.0
2018-Jun-14 18:28N 59°57' E 030°11'0 0.0
2018-Jun-14 17:55N 59°57' E 030°11'0 0.0
2018-Jun-14 17:16N 59°57' E 030°11'0 0.0
2018-Jun-14 16:50N 59°57' E 030°11'0 0.0
2018-Jun-14 15:40N 59°57' E 030°11'0 0.0
2018-Jun-14 15:19N 59°57' E 030°11'0 0.0
2018-Jun-14 14:55N 59°57' E 030°11'0 0.0
2018-Jun-14 14:22N 59°57' E 030°11'0 0.0
2018-Jun-14 13:58N 59°57' E 030°11'0 0.0
2018-Jun-14 13:19N 59°57' E 030°11'0 0.0
2018-Jun-14 12:43N 59°57' E 030°11'0 0.0
2018-Jun-14 12:19N 59°57' E 030°11'0 0.0
2018-Jun-14 10:41N 59°57' E 030°11'0 0.0
2018-Jun-14 10:28N 59°57' E 030°11'0 0.0
2018-Jun-14 09:58N 59°57' E 030°11'0 0.0
2018-Jun-14 09:25N 59°57' E 030°11'0 0.0
2018-Jun-14 08:10N 59°57' E 030°11'0 0.0
2018-Jun-14 07:55N 59°57' E 030°11'0 0.0
2018-Jun-14 07:28N 59°57' E 030°11'0 0.0
2018-Jun-14 06:55N 59°57' E 030°11'0 0.0
2018-Jun-14 06:20N 59°57' E 030°11'0 0.0
2018-Jun-14 05:52N 59°57' E 030°11'0 0.0
2018-Jun-14 05:23N 59°57' E 030°11'0 0.0
2018-Jun-14 04:40N 59°57' E 030°11'0 0.0
2018-Jun-14 04:28N 59°57' E 030°11'0 0.0
2018-Jun-14 04:00N 59°57' E 030°11'0 0.1
2018-Jun-14 03:27N 59°57' E 030°11'2 3.6
2018-Jun-14 03:01N 59°57' E 030°08'  

Dump ship's entire track history